Time;durP1;ratioP1;P1;durP2;ratioP2;P2;SDS_P1;SDS_P2;PMS_P1;PMS_P2;Temp;Humidity;BMP_temperature;BMP_pressure;BME280_temperature;BME280_humidity;BME280_pressure;Samples;Min_cycle;Max_cycle;Signal;HPM_P1;HPM_P2
2021/07/13 00:02:03;;;;;;;21.60;11.32;;;;;;;24.78;61.53;99716.47;5038216;28;20039;-67
2021/07/13 00:04:29;;;;;;;24.23;10.90;;;;;;;24.56;62.38;99713.81;5038872;28;20075;-68
2021/07/13 00:06:54;;;;;;;20.98;11.40;;;;;;;24.80;61.39;99717.03;5038300;28;20241;-67
2021/07/13 00:09:20;;;;;;;20.27;11.35;;;;;;;24.86;60.46;99720.63;5038413;28;20311;-65
2021/07/13 00:11:47;;;;;;;18.02;10.50;;;;;;;24.59;60.85;99715.19;5039166;28;20203;-65
2021/07/13 00:14:12;;;;;;;20.42;10.63;;;;;;;24.60;60.93;99711.41;5037482;28;20042;-65
2021/07/13 00:16:38;;;;;;;20.63;10.25;;;;;;;24.74;59.83;99712.66;5040442;28;20068;-65
2021/07/13 00:19:03;;;;;;;16.30;10.70;;;;;;;24.40;60.67;99710.13;5040181;28;20033;-65
2021/07/13 00:21:29;;;;;;;17.55;11.38;;;;;;;24.15;61.46;99709.78;5038068;28;20033;-65
2021/07/13 00:23:54;;;;;;;16.20;10.57;;;;;;;24.08;61.81;99718.09;5037810;28;20253;-65
2021/07/13 00:26:21;;;;;;;15.10;10.02;;;;;;;23.88;62.16;99706.97;5039001;28;20029;-65
2021/07/13 00:28:46;;;;;;;19.00;11.15;;;;;;;23.84;61.65;99693.13;5038551;28;20047;-68
2021/07/13 00:31:11;;;;;;;14.80;10.27;;;;;;;24.28;60.74;99725.69;5038466;28;20041;-67
2021/07/13 00:33:37;;;;;;;16.05;10.70;;;;;;;24.28;60.59;99720.25;5037851;28;20029;-65
2021/07/13 00:36:03;;;;;;;17.48;10.23;;;;;;;24.26;60.54;99713.44;5038935;28;20025;-65
2021/07/13 00:38:28;;;;;;;20.67;11.40;;;;;;;24.40;60.03;99712.84;5039811;28;20041;-65
2021/07/13 00:40:53;;;;;;;16.30;10.93;;;;;;;24.51;59.47;99719.19;5040793;28;20025;-65
2021/07/13 00:43:19;;;;;;;17.42;10.73;;;;;;;24.58;59.64;99721.69;5038376;28;20025;-65
2021/07/13 00:45:45;;;;;;;18.00;11.20;;;;;;;24.61;59.31;99721.19;5037652;28;20335;-65
2021/07/13 00:48:10;;;;;;;19.52;11.27;;;;;;;24.47;59.31;99713.47;5037490;28;20041;-65
2021/07/13 00:50:36;;;;;;;15.23;10.40;;;;;;;24.46;59.95;99719.13;5038476;28;20033;-68
2021/07/13 00:53:03;;;;;;;22.27;11.75;;;;;;;24.32;60.54;99717.88;5037987;28;20044;-68
2021/07/13 00:55:29;;;;;;;20.27;12.57;;;;;;;24.17;60.93;99715.78;5041540;28;20028;-67
2021/07/13 00:57:55;;;;;;;15.98;11.07;;;;;;;24.23;61.01;99724.75;5041952;28;20692;-66
2021/07/13 01:00:21;;;;;;;16.55;11.90;;;;;;;24.17;60.86;99708.47;5041297;28;20029;-65
2021/07/13 01:02:49;;;;;;;19.23;12.20;;;;;;;24.04;61.75;99719.66;5042310;28;20105;-68
2021/07/13 01:05:18;;;;;;;18.48;12.80;;;;;;;23.86;62.28;99714.53;5042034;28;20112;-68
2021/07/13 01:07:50;;;;;;;21.92;11.90;;;;;;;23.87;62.64;99714.28;5043536;28;20038;-67
2021/07/13 01:10:36;;;;;;;16.38;11.48;;;;;;;23.92;62.48;99724.34;5043111;28;20087;-67
2021/07/13 01:13:35;;;;;;;16.05;12.32;;;;;;;23.77;62.95;99724.94;5044565;28;20079;-67
2021/07/13 01:16:08;;;;;;;17.15;11.98;;;;;;;23.89;62.34;99720.25;5040864;28;20029;-68
2021/07/13 01:18:42;;;;;;;18.63;12.05;;;;;;;24.02;61.86;99712.88;5041003;28;20017;-68
2021/07/13 01:21:20;;;;;;;17.50;12.38;;;;;;;23.99;61.87;99716.91;5041766;28;20145;-65
2021/07/13 01:24:14;;;;;;;19.75;11.25;;;;;;;24.19;61.30;99716.34;5044564;28;20060;-68
2021/07/13 01:26:42;;;;;;;15.85;11.77;;;;;;;23.96;61.96;99717.41;5042704;28;20029;-65
2021/07/13 01:29:14;;;;;;;19.92;12.25;;;;;;;23.83;62.65;99715.03;5040647;28;20040;-66
2021/07/13 01:31:43;;;;;;;17.10;12.43;;;;;;;23.88;62.55;99718.63;5044710;28;20051;-67
2021/07/13 01:34:16;;;;;;;21.33;11.55;;;;;;;23.83;62.74;99725.84;5041810;28;20037;-67
2021/07/13 01:36:47;;;;;;;20.38;11.70;;;;;;;23.87;62.68;99719.69;5041740;28;20048;-65
2021/07/13 01:39:18;;;;;;;18.08;12.32;;;;;;;23.83;62.71;99717.72;5040448;28;20037;-67
2021/07/13 01:41:47;;;;;;;19.75;11.65;;;;;;;23.92;62.54;99726.22;5039543;28;20372;-68
2021/07/13 01:44:14;;;;;;;22.08;13.15;;;;;;;23.93;62.36;99723.31;5041133;28;20033;-68
2021/07/13 01:46:41;;;;;;;17.63;12.02;;;;;;;23.81;62.40;99717.16;5041904;28;20022;-67
2021/07/13 01:49:07;;;;;;;22.45;11.68;;;;;;;23.80;62.52;99734.44;5044362;28;20096;-67
2021/07/13 01:51:33;;;;;;;21.90;12.52;;;;;;;23.85;62.70;99729.09;5042369;28;20067;-65
2021/07/13 01:54:05;;;;;;;25.35;12.05;;;;;;;23.74;63.18;99730.84;5040951;28;20056;-68
2021/07/13 01:56:32;;;;;;;16.65;11.93;;;;;;;23.62;63.33;99711.22;5041347;28;20031;-65
2021/07/13 01:59:00;;;;;;;16.88;12.25;;;;;;;23.67;63.37;99727.50;5043529;28;20045;-67
2021/07/13 02:01:26;;;;;;;17.75;12.18;;;;;;;23.68;63.51;99737.25;5042856;28;20022;-65
2021/07/13 02:03:54;;;;;;;21.98;12.93;;;;;;;23.59;63.91;99727.91;5039582;28;20025;-65
2021/07/13 02:06:23;;;;;;;19.95;13.23;;;;;;;23.44;64.41;99724.94;5037455;28;20033;-68
2021/07/13 02:08:54;;;;;;;15.50;12.52;;;;;;;23.17;65.13;99695.91;5041915;28;20056;-67
2021/07/13 02:11:20;;;;;;;29.05;12.60;;;;;;;23.43;64.85;99728.72;5043525;28;20040;-68
2021/07/13 02:13:46;;;;;;;17.27;12.32;;;;;;;23.29;65.07;99722.00;5040187;28;20040;-65
2021/07/13 02:16:11;;;;;;;21.20;12.32;;;;;;;23.47;64.51;99721.75;5040125;28;20021;-65
2021/07/13 02:18:37;;;;;;;19.42;12.75;;;;;;;23.55;64.18;99719.50;5041619;28;20036;-65
2021/07/13 02:21:04;;;;;;;18.02;13.15;;;;;;;23.60;64.06;99721.44;5043399;28;20036;-65
2021/07/13 02:23:30;;;;;;;21.42;12.48;;;;;;;23.48;64.35;99721.50;5041243;28;20369;-65
2021/07/13 02:25:59;;;;;;;20.30;12.52;;;;;;;23.42;64.40;99719.78;5040942;28;20025;-67
2021/07/13 02:28:31;;;;;;;29.23;14.27;;;;;;;23.31;64.77;99709.06;5039855;28;20341;-68
2021/07/13 02:31:02;;;;;;;24.42;12.50;;;;;;;23.43;64.15;99701.69;5039449;28;20029;-65
2021/07/13 02:33:36;;;;;;;23.15;13.40;;;;;;;23.65;63.43;99723.41;5036839;28;20041;-68
2021/07/13 02:36:06;;;;;;;22.02;13.05;;;;;;;23.72;63.17;99730.28;5040762;28;20025;-67
2021/07/13 02:38:32;;;;;;;17.55;13.27;;;;;;;23.60;63.20;99726.84;5039406;28;20061;-68
2021/07/13 02:40:59;;;;;;;21.95;13.25;;;;;;;23.57;63.24;99732.75;5040836;28;20382;-65
2021/07/13 02:43:25;;;;;;;19.67;13.57;;;;;;;23.53;63.30;99727.00;5042926;28;20048;-65
2021/07/13 02:45:53;;;;;;;20.50;12.98;;;;;;;23.55;63.24;99724.91;5041943;28;20045;-67
2021/07/13 02:48:19;;;;;;;19.02;12.15;;;;;;;23.43;63.43;99729.53;5039200;28;20029;-67
2021/07/13 02:50:47;;;;;;;25.98;13.23;;;;;;;23.38;63.76;99720.53;5040002;28;20025;-68
2021/07/13 02:53:13;;;;;;;19.50;13.50;;;;;;;23.47;63.16;99722.56;5040129;28;20259;-67
2021/07/13 02:55:41;;;;;;;26.48;15.07;;;;;;;23.38;63.54;99725.94;5039337;28;20330;-65
2021/07/13 02:58:08;;;;;;;24.83;15.40;;;;;;;23.60;62.90;99723.34;5040078;28;20250;-67
2021/07/13 03:00:34;;;;;;;24.05;14.07;;;;;;;23.58;62.72;99725.47;5038988;28;20037;-65
2021/07/13 03:03:01;;;;;;;21.63;14.23;;;;;;;23.64;62.64;99728.00;5039331;28;20036;-67
2021/07/13 03:05:27;;;;;;;22.70;14.45;;;;;;;23.60;62.79;99734.97;5040011;28;20045;-65
2021/07/13 03:07:53;;;;;;;24.60;14.52;;;;;;;23.27;63.67;99741.16;5042401;28;20509;-65
2021/07/13 03:10:26;;;;;;;23.23;13.75;;;;;;;23.29;63.77;99738.22;5041128;28;20251;-65
2021/07/13 03:12:53;;;;;;;27.35;15.35;;;;;;;23.29;63.65;99725.53;5027801;28;20094;-67
2021/07/13 03:15:23;;;;;;;29.38;16.02;;;;;;;23.43;63.33;99734.94;5039240;28;20093;-65
2021/07/13 03:17:49;;;;;;;23.27;15.20;;;;;;;23.57;63.12;99735.47;5038494;28;20044;-67
2021/07/13 03:20:15;;;;;;;18.73;15.35;;;;;;;23.58;63.17;99739.78;5038977;28;20029;-65
2021/07/13 03:22:44;;;;;;;24.85;15.40;;;;;;;23.62;62.51;99737.41;5039838;28;20044;-65
2021/07/13 03:25:19;;;;;;;25.33;16.42;;;;;;;23.65;62.50;99740.44;5038603;28;20293;-65
2021/07/13 03:27:48;;;;;;;27.75;17.23;;;;;;;23.50;62.81;99735.59;5021896;28;20026;-67
2021/07/13 03:30:14;;;;;;;30.50;17.40;;;;;;;23.39;63.15;99736.50;5022191;28;20040;-65
2021/07/13 03:32:41;;;;;;;26.52;16.08;;;;;;;23.38;63.03;99734.03;5035286;28;20033;-65
2021/07/13 03:35:08;;;;;;;24.48;15.70;;;;;;;23.48;62.51;99734.22;5038300;28;20186;-65
2021/07/13 03:37:35;;;;;;;26.33;15.40;;;;;;;23.70;62.13;99735.13;5038482;28;20042;-65
2021/07/13 03:40:03;;;;;;;24.45;15.80;;;;;;;23.75;61.92;99737.06;5038978;28;20134;-67
2021/07/13 03:42:29;;;;;;;33.08;16.02;;;;;;;23.65;62.25;99740.44;5038127;28;20319;-65
2021/07/13 03:44:54;;;;;;;24.98;15.77;;;;;;;23.75;61.93;99740.59;5028665;28;20034;-68
2021/07/13 03:47:20;;;;;;;23.58;16.85;;;;;;;23.78;61.96;99741.97;5039241;28;20029;-65
2021/07/13 03:49:47;;;;;;;25.83;16.17;;;;;;;23.81;62.07;99745.00;5038123;28;20315;-66
2021/07/13 03:52:13;;;;;;;28.85;16.15;;;;;;;23.87;61.68;99745.91;5038968;28;20045;-67
2021/07/13 03:54:39;;;;;;;23.00;16.85;;;;;;;23.85;61.81;99746.16;5038177;28;20029;-65
2021/07/13 03:57:06;;;;;;;29.30;16.40;;;;;;;23.95;61.39;99736.56;5038229;28;20052;-68
2021/07/13 03:59:31;;;;;;;26.40;16.85;;;;;;;23.94;61.51;99743.06;5040191;28;20206;-67
2021/07/13 04:01:57;;;;;;;24.20;15.50;;;;;;;23.93;61.80;99730.56;5038977;28;20029;-67
2021/07/13 04:04:23;;;;;;;31.05;16.33;;;;;;;23.96;61.76;99735.50;5038006;28;20067;-67
2021/07/13 04:06:48;;;;;;;27.92;16.65;;;;;;;23.93;62.08;99730.56;5038732;28;20048;-65
2021/07/13 04:09:13;;;;;;;23.20;15.63;;;;;;;23.93;62.47;99725.16;5038046;28;20035;-65
2021/07/13 04:11:39;;;;;;;28.73;16.60;;;;;;;24.12;62.09;99727.34;5038445;28;20031;-65
2021/07/13 04:14:05;;;;;;;25.52;16.30;;;;;;;24.12;62.41;99735.47;5038616;28;20025;-67
2021/07/13 04:16:31;;;;;;;20.65;15.43;;;;;;;24.15;62.58;99734.13;5038097;28;20211;-68
2021/07/13 04:18:57;;;;;;;26.27;15.10;;;;;;;24.28;61.75;99719.44;5037467;28;20025;-65
2021/07/13 04:21:22;;;;;;;28.48;15.15;;;;;;;24.44;61.76;99732.09;5039217;28;20025;-67
2021/07/13 04:23:48;;;;;;;27.27;16.48;;;;;;;24.31;62.27;99736.00;5037766;28;20091;-65
2021/07/13 04:26:13;;;;;;;23.50;14.63;;;;;;;24.25;62.45;99741.56;5040225;28;20219;-65
2021/07/13 04:28:38;;;;;;;25.38;14.70;;;;;;;24.18;62.60;99739.88;5037525;28;20379;-65
2021/07/13 04:31:04;;;;;;;19.52;14.63;;;;;;;24.45;62.35;99737.25;5038678;28;20037;-65
2021/07/13 04:33:30;;;;;;;23.48;14.57;;;;;;;24.76;61.53;99733.00;5037519;28;20075;-68
2021/07/13 04:35:57;;;;;;;22.13;15.20;;;;;;;25.01;60.47;99735.19;5038180;28;20366;-68
2021/07/13 04:38:23;;;;;;;22.98;13.77;;;;;;;25.23;59.89;99734.28;5038054;28;20029;-65
2021/07/13 04:40:48;;;;;;;26.70;14.80;;;;;;;25.52;58.72;99735.59;5039443;28;20036;-65
2021/07/13 04:43:13;;;;;;;22.23;14.43;;;;;;;25.80;57.77;99737.19;5040797;28;20036;-67
2021/07/13 04:45:39;;;;;;;19.88;14.52;;;;;;;26.02;56.57;99735.16;5038862;28;20045;-68
2021/07/13 04:48:05;;;;;;;28.83;14.82;;;;;;;26.07;56.41;99740.63;5037188;28;20056;-68
2021/07/13 04:50:31;;;;;;;31.48;15.10;;;;;;;26.22;55.66;99730.91;5038594;28;20251;-66
2021/07/13 04:52:56;;;;;;;28.65;14.75;;;;;;;26.58;54.79;99735.44;5037512;28;20282;-68
2021/07/13 04:55:22;;;;;;;23.70;14.80;;;;;;;26.63;54.37;99726.47;5037565;28;20025;-68
2021/07/13 04:57:47;;;;;;;26.90;13.73;;;;;;;26.85;53.46;99726.25;5041308;28;20037;-66
2021/07/13 05:00:15;;;;;;;22.27;13.70;;;;;;;27.08;52.81;99723.06;5040572;28;20041;-66
2021/07/13 05:02:41;;;;;;;19.27;13.73;;;;;;;27.43;51.98;99721.44;5039114;28;20056;-66
2021/07/13 05:05:10;;;;;;;23.80;13.77;;;;;;;27.63;51.70;99729.59;5039419;28;20041;-68
2021/07/13 05:07:39;;;;;;;21.92;14.55;;;;;;;28.01;50.21;99728.16;5041703;28;20037;-65
2021/07/13 05:10:06;;;;;;;20.55;13.10;;;;;;;27.92;49.78;99718.94;5042058;28;20240;-68
2021/07/13 05:12:31;;;;;;;23.98;12.93;;;;;;;28.06;49.30;99717.25;5041704;28;20315;-66
2021/07/13 05:14:57;;;;;;;29.70;12.77;;;;;;;28.29;48.73;99718.59;5041624;28;20033;-65
2021/07/13 05:17:22;;;;;;;28.95;11.88;;;;;;;28.65;47.55;99716.47;5041771;28;20029;-65
2021/07/13 05:19:49;;;;;;;27.25;11.52;;;;;;;29.02;46.57;99717.91;5041530;28;20030;-68
2021/07/13 05:22:15;;;;;;;15.60;10.98;;;;;;;29.31;45.30;99720.69;5041608;28;20350;-67
2021/07/13 05:24:40;;;;;;;19.60;10.48;;;;;;;29.50;44.00;99722.47;5041588;28;20029;-66
2021/07/13 05:27:06;;;;;;;15.02;9.65;;;;;;;29.27;44.38;99722.38;5041719;28;20037;-66
2021/07/13 05:29:32;;;;;;;18.08;9.60;;;;;;;29.42;44.55;99717.59;5041789;28;20029;-66
2021/07/13 05:31:58;;;;;;;14.18;8.85;;;;;;;29.84;42.86;99716.13;5041839;28;20105;-66
2021/07/13 05:34:24;;;;;;;19.75;9.68;;;;;;;29.71;42.95;99720.34;5041574;28;20038;-68
2021/07/13 05:36:49;;;;;;;17.13;8.95;;;;;;;29.38;43.55;99708.34;5041942;28;20053;-66
2021/07/13 05:39:14;;;;;;;19.38;8.85;;;;;;;29.90;42.49;99719.59;5042403;28;20025;-65
2021/07/13 05:41:40;;;;;;;15.10;8.40;;;;;;;30.50;41.39;99726.28;5045571;28;20103;-66
2021/07/13 05:44:09;;;;;;;13.65;9.30;;;;;;;30.91;40.31;99718.34;5044980;28;20033;-68
2021/07/13 05:46:34;;;;;;;13.68;8.40;;;;;;;31.10;39.54;99723.78;5045497;28;20033;-68
2021/07/13 05:49:00;;;;;;;15.55;9.60;;;;;;;31.19;39.36;99722.03;5044851;28;20099;-66
2021/07/13 05:51:26;;;;;;;15.30;8.93;;;;;;;31.00;39.32;99710.28;5045526;28;20206;-68
2021/07/13 05:53:51;;;;;;;14.18;8.60;;;;;;;31.03;39.25;99723.34;5042574;28;20037;-68
2021/07/13 05:56:17;;;;;;;15.07;9.05;;;;;;;31.57;38.71;99713.75;5040245;28;20482;-68
2021/07/13 05:58:42;;;;;;;15.35;8.82;;;;;;;31.85;37.76;99707.22;5040681;28;20035;-68
2021/07/13 06:01:08;;;;;;;15.93;9.13;;;;;;;32.21;36.36;99709.22;5041318;28;20059;-68
2021/07/13 06:03:34;;;;;;;11.68;8.50;;;;;;;32.59;35.29;99699.69;5040313;28;20033;-66
2021/07/13 06:06:00;;;;;;;14.93;9.38;;;;;;;32.54;35.68;99709.94;5041389;28;20033;-66
2021/07/13 06:08:25;;;;;;;15.43;8.82;;;;;;;33.03;34.42;99697.31;5040124;28;20077;-68
2021/07/13 06:10:51;;;;;;;22.70;9.02;;;;;;;33.13;33.90;99710.78;5041413;28;20231;-66
2021/07/13 06:13:17;;;;;;;14.98;8.77;;;;;;;33.37;33.56;99705.03;5039797;28;20064;-66
2021/07/13 06:15:42;;;;;;;13.07;8.65;;;;;;;33.40;33.38;99699.72;5039809;28;20071;-66
2021/07/13 06:18:08;;;;;;;13.50;8.85;;;;;;;33.73;32.50;99702.13;5044853;28;20044;-68
2021/07/13 06:20:37;;;;;;;13.73;8.02;;;;;;;34.13;31.89;99703.78;5042256;28;20307;-68
2021/07/13 06:23:02;;;;;;;12.55;8.43;;;;;;;34.30;31.25;99700.25;5038571;28;20231;-68
2021/07/13 06:25:28;;;;;;;12.95;8.30;;;;;;;34.08;32.06;99701.16;5041354;28;20033;-66
2021/07/13 06:27:54;;;;;;;11.05;7.97;;;;;;;33.63;32.60;99697.75;5041699;28;20041;-66
2021/07/13 06:30:19;;;;;;;14.75;8.75;;;;;;;33.72;32.21;99692.28;5042961;28;20100;-68
2021/07/13 06:32:45;;;;;;;15.48;9.00;;;;;;;34.06;31.10;99670.47;5040409;28;20035;-66
2021/07/13 06:35:12;;;;;;;16.17;8.13;;;;;;;34.26;30.92;99689.09;5040771;28;20101;-66
2021/07/13 06:37:37;;;;;;;13.45;8.38;;;;;;;34.01;31.09;99694.53;5039644;28;20104;-68
2021/07/13 06:40:07;;;;;;;17.73;8.23;;;;;;;34.16;31.18;99700.38;5040915;28;20060;-66
2021/07/13 06:42:32;;;;;;;15.77;7.93;;;;;;;34.47;30.71;99686.59;5040318;28;20040;-68
2021/07/13 06:44:58;;;;;;;15.52;8.45;;;;;;;34.50;30.71;99688.69;5039285;28;20033;-68
2021/07/13 06:47:23;;;;;;;18.15;8.77;;;;;;;34.58;31.06;99687.88;5040720;28;20040;-68
2021/07/13 06:49:49;;;;;;;12.93;8.27;;;;;;;35.18;29.68;99686.25;5039082;28;20106;-68
2021/07/13 06:52:14;;;;;;;14.13;8.20;;;;;;;35.27;29.42;99681.53;5039342;28;20037;-69
2021/07/13 06:54:40;;;;;;;13.63;8.63;;;;;;;34.59;30.24;99683.19;5040177;28;20215;-66
2021/07/13 06:57:05;;;;;;;15.45;7.93;;;;;;;34.78;29.72;99685.63;5039123;28;20025;-68
2021/07/13 06:59:31;;;;;;;12.23;8.52;;;;;;;34.76;29.77;99685.94;5038871;28;20025;-68
2021/07/13 07:01:56;;;;;;;16.15;8.65;;;;;;;34.48;30.44;99679.97;5039476;28;20214;-68
2021/07/13 07:04:22;;;;;;;11.88;8.68;;;;;;;34.12;31.09;99680.16;5040461;28;20033;-66
2021/07/13 07:06:48;;;;;;;13.73;8.52;;;;;;;34.62;29.77;99677.06;5039272;28;20060;-68
2021/07/13 07:09:13;;;;;;;11.07;8.30;;;;;;;35.31;29.24;99670.69;5039087;28;20250;-66
2021/07/13 07:11:39;;;;;;;11.20;8.20;;;;;;;35.70;28.70;99664.13;5039863;28;20025;-66
2021/07/13 07:14:04;;;;;;;15.32;8.55;;;;;;;36.03;27.85;99664.31;5038674;28;20037;-66
2021/07/13 07:16:30;;;;;;;11.45;8.00;;;;;;;36.01;27.51;99663.81;5038978;28;20262;-66
2021/07/13 07:18:56;;;;;;;19.10;7.93;;;;;;;36.30;26.74;99663.84;5040022;28;20032;-68
2021/07/13 07:21:21;;;;;;;15.13;8.48;;;;;;;36.74;27.09;99659.59;5039098;28;20029;-66
2021/07/13 07:23:46;;;;;;;16.23;7.53;;;;;;;36.87;26.21;99654.97;5039650;28;20045;-68
2021/07/13 07:26:12;;;;;;;12.05;7.88;;;;;;;36.98;26.41;99655.38;5038695;28;20073;-66
2021/07/13 07:28:38;;;;;;;12.77;8.05;;;;;;;37.12;26.13;99655.88;5038875;28;20030;-66
2021/07/13 07:31:03;;;;;;;11.43;7.80;;;;;;;37.28;25.89;99656.03;5039693;28;20254;-68
2021/07/13 07:33:29;;;;;;;13.25;7.80;;;;;;;37.41;25.56;99649.41;5038547;28;20033;-68
2021/07/13 07:35:54;;;;;;;10.35;7.93;;;;;;;37.44;25.69;99645.94;5039877;28;20037;-66
2021/07/13 07:38:20;;;;;;;14.82;8.35;;;;;;;37.63;25.38;99642.66;5038228;28;20239;-68
2021/07/13 07:40:45;;;;;;;16.50;7.78;;;;;;;37.85;24.94;99642.22;5038479;28;20071;-66
2021/07/13 07:43:11;;;;;;;12.40;8.13;;;;;;;38.15;24.33;99653.03;5039531;28;20223;-66
2021/07/13 07:45:36;;;;;;;11.63;8.00;;;;;;;38.06;23.96;99644.03;5038494;28;20044;-68
2021/07/13 07:48:04;;;;;;;10.32;7.78;;;;;;;37.97;24.67;99642.22;5039498;28;20242;-68
2021/07/13 07:50:30;;;;;;;12.95;8.15;;;;;;;38.07;24.35;99646.47;5038940;28;20039;-68
2021/07/13 07:52:55;;;;;;;12.40;7.90;;;;;;;38.45;23.85;99639.72;5038177;28;20268;-68
2021/07/13 07:55:23;;;;;;;12.73;8.02;;;;;;;38.21;24.80;99640.59;5039348;28;20337;-68
2021/07/13 07:57:50;;;;;;;20.95;8.07;;;;;;;38.53;24.70;99645.13;5038007;28;20064;-66
2021/07/13 08:00:17;;;;;;;20.52;7.35;;;;;;;38.81;23.93;99647.13;5038181;28;20041;-68
2021/07/13 08:02:43;;;;;;;15.73;8.32;;;;;;;38.69;23.60;99639.69;5038104;28;20071;-66
2021/07/13 08:05:10;;;;;;;15.05;7.32;;;;;;;38.81;22.68;99642.41;5037850;28;20049;-68
2021/07/13 08:07:35;;;;;;;13.90;7.35;;;;;;;39.11;22.45;99642.84;5038498;28;20022;-69
2021/07/13 08:10:02;;;;;;;10.52;7.40;;;;;;;38.69;22.36;99628.63;5038599;28;20044;-69
2021/07/13 08:12:27;;;;;;;9.18;7.60;;;;;;;38.57;22.56;99632.22;5038201;28;20031;-66
2021/07/13 08:14:53;;;;;;;17.80;7.90;;;;;;;37.96;24.34;99628.72;5038912;28;20203;-68
2021/07/13 08:17:19;;;;;;;10.40;8.05;;;;;;;37.94;24.13;99618.03;5039461;28;20045;-68
2021/07/13 08:19:45;;;;;;;10.27;6.88;;;;;;;37.70;24.36;99629.91;5040988;28;20021;-68
2021/07/13 08:22:11;;;;;;;11.45;8.02;;;;;;;38.10;24.01;99620.06;5038665;28;20036;-66
2021/07/13 08:24:37;;;;;;;14.68;8.07;;;;;;;37.98;24.53;99616.19;5038505;28;20037;-69
2021/07/13 08:27:05;;;;;;;8.10;7.18;;;;;;;37.57;24.61;99613.66;5038134;28;20096;-66
2021/07/13 08:29:31;;;;;;;14.95;8.43;;;;;;;37.21;25.21;99617.13;5038733;28;20025;-66
2021/07/13 08:31:59;;;;;;;9.95;7.53;;;;;;;38.01;24.64;99617.44;5037349;28;20369;-68
2021/07/13 08:34:29;;;;;;;12.75;7.20;;;;;;;37.93;23.88;99621.13;5037978;28;20024;-66
2021/07/13 08:36:55;;;;;;;11.80;7.90;;;;;;;38.00;24.60;99618.59;5038140;28;20079;-66
2021/07/13 08:39:21;;;;;;;11.55;7.82;;;;;;;37.85;24.05;99613.78;5037182;28;22188;-68
2021/07/13 08:41:47;;;;;;;9.25;7.78;;;;;;;38.19;24.68;99618.81;5036704;28;20025;-66
2021/07/13 08:44:13;;;;;;;15.57;7.60;;;;;;;38.26;23.81;99607.16;5037832;28;20029;-66
2021/07/13 08:46:42;;;;;;;12.15;8.02;;;;;;;38.31;23.59;99609.69;5039027;28;20116;-68
2021/07/13 08:49:10;;;;;;;11.68;7.70;;;;;;;38.57;23.40;99612.03;5037829;28;20029;-68
2021/07/13 08:51:37;;;;;;;13.20;7.43;;;;;;;38.86;22.86;99605.34;5037838;28;20034;-68
2021/07/13 08:54:03;;;;;;;15.27;7.70;;;;;;;38.84;23.28;99618.75;5038385;28;20056;-68
2021/07/13 08:56:33;;;;;;;12.68;7.90;;;;;;;38.72;22.86;99578.09;5037568;28;20381;-66
2021/07/13 08:59:00;;;;;;;12.90;7.93;;;;;;;38.85;22.76;99609.28;5033321;28;20037;-66
2021/07/13 09:01:25;;;;;;;12.85;7.43;;;;;;;39.19;22.32;99603.09;5038522;28;20299;-66
2021/07/13 09:03:56;;;;;;;10.60;7.35;;;;;;;39.25;22.31;99598.09;5037500;28;20105;-66
2021/07/13 09:06:23;;;;;;;10.20;7.78;;;;;;;39.28;21.87;99606.50;5038653;28;20030;-66
2021/07/13 09:08:49;;;;;;;12.75;7.68;;;;;;;38.97;21.38;99598.16;5038096;28;20029;-68
2021/07/13 09:11:17;;;;;;;12.65;6.90;;;;;;;38.61;22.57;99608.25;5037514;28;20238;-68
2021/07/13 09:13:54;;;;;;;11.70;7.28;;;;;;;38.36;21.62;99601.13;5037935;28;20366;-66
2021/07/13 09:16:23;;;;;;;12.15;7.47;;;;;;;37.96;22.43;99599.13;5041914;28;20246;-66
2021/07/13 09:18:56;;;;;;;8.20;6.50;;;;;;;37.92;22.22;99595.47;5041040;28;20113;-68
2021/07/13 09:21:33;;;;;;;14.60;7.43;;;;;;;37.59;22.93;99595.56;5039324;28;20025;-65
2021/07/13 09:24:04;;;;;;;13.90;7.40;;;;;;;36.41;25.02;99603.56;5038340;28;20378;-66
2021/07/13 09:26:56;;;;;;;10.82;7.40;;;;;;;35.76;24.64;99603.00;5041226;28;20044;-68
2021/07/13 09:29:29;;;;;;;11.57;7.07;;;;;;;36.21;24.04;99598.84;5038094;28;20021;-68
2021/07/13 09:32:14;;;;;;;10.68;7.03;;;;;;;36.66;23.36;99596.25;5042072;28;20223;-66
2021/07/13 09:34:47;;;;;;;13.30;7.38;;;;;;;36.54;25.09;99596.19;5040824;28;20039;-66
2021/07/13 09:37:25;;;;;;;9.70;7.53;;;;;;;36.05;25.51;99599.44;5041604;28;20057;-66
2021/07/13 09:40:08;;;;;;;12.77;8.07;;;;;;;36.14;25.20;99591.91;5041744;28;20026;-66
2021/07/13 09:42:36;;;;;;;12.02;7.13;;;;;;;36.27;25.32;99586.47;5041144;28;20067;-68
2021/07/13 09:45:21;;;;;;;13.70;7.40;;;;;;;36.10;25.98;99598.44;5040467;28;20283;-66
2021/07/13 09:47:48;;;;;;;14.43;7.60;;;;;;;35.32;28.86;99593.31;5039683;28;20044;-66
2021/07/13 09:50:28;;;;;;;10.98;8.18;;;;;;;35.13;27.09;99590.09;5037687;28;20033;-66
2021/07/13 09:53:01;;;;;;;11.82;7.32;;;;;;;35.07;28.59;99589.47;5040632;28;20032;-68
2021/07/13 09:55:27;;;;;;;11.43;7.70;;;;;;;34.55;28.70;99583.25;5041136;28;20042;-68
2021/07/13 09:57:53;;;;;;;10.02;6.65;;;;;;;34.78;29.24;99581.09;5040294;28;20267;-66
2021/07/13 10:00:19;;;;;;;9.57;6.88;;;;;;;35.20;28.19;99573.91;5038172;28;20207;-66
2021/07/13 10:02:45;;;;;;;11.38;6.70;;;;;;;35.55;26.94;99569.09;5041165;28;20025;-66
2021/07/13 10:05:10;;;;;;;14.10;7.70;;;;;;;35.64;27.50;99571.81;5040345;28;20067;-66
2021/07/13 10:07:37;;;;;;;14.57;6.63;;;;;;;35.57;26.31;99574.28;5041401;28;20025;-68
2021/07/13 10:10:04;;;;;;;12.60;6.57;;;;;;;35.44;25.61;99576.13;5038882;28;20025;-68
2021/07/13 10:12:30;;;;;;;10.75;6.70;;;;;;;35.38;26.22;99567.25;5040372;28;20184;-68
2021/07/13 10:15:00;;;;;;;13.23;5.68;;;;;;;35.47;23.73;99543.22;5040905;28;20044;-66
2021/07/13 10:17:30;;;;;;;6.80;5.50;;;;;;;35.72;24.41;99570.94;5040168;28;20022;-66
2021/07/13 10:20:06;;;;;;;7.88;5.57;;;;;;;36.07;24.79;99569.59;5041104;28;20370;-68
2021/07/13 10:22:34;;;;;;;17.55;6.55;;;;;;;36.01;24.83;99570.94;5040383;28;20041;-68
2021/07/13 10:25:01;;;;;;;9.27;6.70;;;;;;;36.06;24.63;99562.47;5039283;28;20241;-67
2021/07/13 10:27:33;;;;;;;12.43;6.32;;;;;;;35.96;23.84;99557.38;5034165;28;20243;-66
2021/07/13 10:30:00;;;;;;;14.43;6.60;;;;;;;35.96;26.94;99564.81;5041136;28;20060;-68
2021/07/13 10:32:26;;;;;;;15.65;6.97;;;;;;;35.00;26.79;99577.38;5039627;28;20323;-68
2021/07/13 10:34:55;;;;;;;10.80;6.65;;;;;;;34.54;26.72;99562.38;5039903;28;20052;-66
2021/07/13 10:37:32;;;;;;;11.60;6.90;;;;;;;34.49;28.47;99570.81;5040101;28;20079;-68
2021/07/13 10:40:01;;;;;;;16.00;7.10;;;;;;;34.13;29.35;99562.81;5039968;28;20029;-66
2021/07/13 10:42:42;;;;;;;7.40;6.57;;;;;;;33.97;28.45;99558.94;5039456;28;20025;-65
2021/07/13 10:45:16;;;;;;;7.28;6.53;;;;;;;34.17;27.46;99550.06;5037643;28;20037;-68
2021/07/13 10:48:07;;;;;;;9.25;6.18;;;;;;;34.17;26.31;99558.28;5037230;28;20047;-68
2021/07/13 10:50:39;;;;;;;11.25;6.43;;;;;;;34.09;27.15;99553.59;5038440;28;20034;-68
2021/07/13 10:53:25;;;;;;;9.60;6.00;;;;;;;33.98;26.94;99550.38;5039238;28;20039;-68
2021/07/13 10:56:10;;;;;;;9.65;6.30;;;;;;;34.18;26.03;99546.97;5037799;28;20029;-66
2021/07/13 10:58:38;;;;;;;11.40;6.50;;;;;;;34.09;25.65;99537.94;5037582;28;20043;-68
2021/07/13 11:01:09;;;;;;;10.20;6.70;;;;;;;34.25;26.59;99532.75;5036568;28;20036;-66
2021/07/13 11:03:37;;;;;;;11.88;7.00;;;;;;;34.18;26.15;99537.94;5040168;28;20041;-65
2021/07/13 11:06:18;;;;;;;14.68;6.18;;;;;;;34.22;25.72;99547.94;5039251;28;20037;-66
2021/07/13 11:08:52;;;;;;;11.48;6.45;;;;;;;34.30;25.56;99527.09;5038963;28;20200;-68
2021/07/13 11:11:27;;;;;;;7.82;6.45;;;;;;;34.30;26.87;99534.53;5037207;28;20043;-68
2021/07/13 11:14:02;;;;;;;9.73;5.03;;;;;;;34.32;23.41;99526.78;5038463;28;20063;-68
2021/07/13 11:16:30;;;;;;;8.80;5.78;;;;;;;34.27;24.16;99525.81;5037358;28;20033;-65
2021/07/13 11:18:57;;;;;;;10.13;5.63;;;;;;;34.38;24.70;99523.59;5038490;28;20272;-68
2021/07/13 11:21:32;;;;;;;8.02;5.20;;;;;;;34.56;24.48;99516.94;5039123;28;20025;-68
2021/07/13 11:24:03;;;;;;;7.75;4.70;;;;;;;34.84;23.07;99517.38;5036980;28;20281;-66
2021/07/13 11:26:29;;;;;;;5.88;5.13;;;;;;;34.30;24.95;99518.84;5034992;28;20040;-67